Terminal Aerodrome Forecast
Issued by NWS Newport/Morehead City, NC

Home | Current Version | Previous Version | Graphics & Text | Print | Product List | Glossary On
Versions: 1 2 3 4 5 6 7 8 9 10 11 12
666
FTUS42 KMHX 091143
TAFEWN
TAF
KEWN 091143Z 0912/1012 28004KT P6SM SKC
      TEMPO 0912/0913 3SM BR BKN005
     FM091400 26012G21KT P6SM BKN050
     FM100000 26008KT P6SM SCT050=

USA.gov is the U.S. government's official web portal to all federal, state and local government web resources and services.